Historyczne dane pomiarowe

Dodano dane terminowe – wersja testowa.

Dane z okresu 1951-2019

Wersja bazy: 1.34 [2019-03-16, lista zmian], aktualizacja planowana na 2019-04-15

Dane meteo z obszaru Polski uzyskane na podstawie danych udostępnionych przez Instytut Meteorologii i Gospodarki Wodnej – Państwowy Instytut Badawczy.

 

Wybierz Datę:    

       

TemperaturaWilgotnośćWiatrCiśnienieOpadyŚniegCzas trwania zjawisk
 Stacja t tx tn tng RH VA  wxwx mslp ppp RRR   cm mm wxwxwxwxwxwxwx
1994-08-14 14.8 19.2 11.3- 73.3- 2.0 3.7---- 0.0------------
1994-08-13 17.0 23.4 14.3- 83.3- 5.0 4.0---- 5.7------------
1994-08-12 17.5 22.9 15.0- 86.0- 6.0 3.0---- 0.1------------
1994-08-11 17.2 20.4 14.8- 88.3- 6.3 0.7---- 5.8------------
1994-08-10 19.2 27.0 12.3- 72.5- 1.3 1.7---- 0.0------------
1994-08-09 17.4 23.1 16.3- 98.8- 5.0 0.7---- 23.0------------
1994-08-08 21.9 27.6 12.6- 80.0- 4.0 1.7---- 19.8------------
1994-08-07 23.6 29.5 15.6- 77.0- 3.3 2.7---- 9.6------------
1994-08-06 24.2 34.0 12.3- 57.5- 1.0 2.0---- 0.0------------
1994-08-05 23.4 31.7 13.5- 71.5- 1.7 1.3---- 0.0------------
1994-08-04 23.1 30.0 15.5- 71.5- 4.0 1.7---- 0.0------------
1994-08-03 23.5 31.2 19.7- 73.0- 5.0 3.3---- 6.9------------
1994-08-02 26.2 34.4 18.4- 60.5- 4.7 1.0---- 0.0------------
1994-08-01 25.8 36.5 15.0- 63.0- 3.3 1.7---- 0.0------------
1994-07-31 26.4 35.0 15.3- 63.0- 1.0 2.7---- 0.0------------
1994-07-30 25.3 36.0 13.4- 66.8- 2.0 0.7---- 0.0------------
1994-07-29 25.3 35.7 13.7- 61.5- 2.0 1.0---- 0.0------------
1994-07-28 24.3 34.5 11.8- 60.0- 3.0 1.3---- 0.0------------
1994-07-27 24.9 34.2 13.3- 57.8- 0.7 1.3---- 0.0------------
1994-07-26 24.4 34.2 11.8- 63.5- 2.0 0.7---- 0.0------------
1994-07-25 23.4 33.0 10.1- 63.5- 1.0 0.7---- 0.0------------
1994-07-24 22.8 32.2 10.0- 64.5- 1.3 1.3---- 0.0------------
1994-07-23 21.5 30.4 8.8- 63.8- 1.7 0.7---- 0.0------------
1994-07-22 21.1 28.5 8.5- 57.0- 0.0 1.3---- 0.0------------
1994-07-21 20.1 28.5 7.3- 60.3- 0.0 1.3---- 0.0------------
1994-07-20 18.2 25.6 6.9- 52.3- 0.0 2.3---- 0.0------------
1994-07-19 18.4 25.6 12.6- 59.3- 3.7 2.7---- 0.0------------
1994-07-18 21.1 27.7 13.8- 74.5- 4.0 1.7---- 0.0------------
1994-07-17 20.4 27.6 15.5- 87.3- 5.3 1.0---- 0.6------------
1994-07-16 21.9 30.6 13.5- 72.5- 3.3 1.3---- 0.0------------
1994-07-15 22.5 29.3 13.6- 69.0- 2.0 2.7---- 0.0------------
1994-07-14 22.0 31.3 11.3- 67.5- 3.0 0.7---- 0.0------------
1994-07-13 22.6 29.4 11.9- 58.8- 2.0 2.0---- 0.0------------
1994-07-12 22.0 28.2 14.1- 69.8- 2.3 2.0---- 0.0------------
1994-07-11 19.4 26.7 12.2- 79.3- 3.7 1.3---- 0.0------------
1994-07-10 18.3 24.1 12.6- 82.0- 5.0 3.3---- 0.3------------
1994-07-09 13.8 15.7 12.4- 96.5- 6.0 2.3---- 15.8------------
1994-07-08 16.4 21.3 8.8- 85.5- 5.7 2.7---- 6.1------------
1994-07-07 19.4 27.0 8.3- 72.0- 1.3 1.3---- 1.4------------
1994-07-06 19.2 28.0 7.7- 75.5- 2.0 1.3---- 0.0------------
1994-07-05 19.3 28.0 9.8- 80.0- 4.0 1.0---- 0.3------------
1994-07-04 22.6 30.1 9.2- 66.0- 0.7 1.3---- 0.0------------
1994-07-03 19.7 28.8 6.2- 68.5- 0.3 1.0---- 0.0------------
1994-07-02 18.6 26.4 6.5- 68.5- 0.0 1.7---- 0.0------------
1994-07-01 18.4 24.4 8.8- 74.3- 1.0 2.0---- 0.0------------
1994-06-30 21.8 29.3 16.9- 81.8- 5.3 3.3---- 0.0------------
1994-06-29 26.6 32.6 14.8- 72.0- 1.0 1.7---- 0.0------------
1994-06-28 24.1 30.4 15.8- 77.8- 1.3 1.3---- 0.0------------
1994-06-27 25.2 33.8 14.8- 75.3- 1.0 1.7---- 0.0------------
1994-06-26 20.5 30.2 5.9- 77.5- 1.3 2.7---- 0.0------------
1994-06-25 15.6 23.6 1.8- 74.8- 0.0 1.3---- 0.0------------
1994-06-24 14.3 20.4 4.6- 73.5- 0.0 4.0---- 0.0------------
1994-06-23 17.0 21.4 15.0- 66.0- 1.0 5.7---- 0.0------------
1994-06-22 18.3 26.4 6.9- 75.0- 3.7 2.3---- 0.0------------
1994-06-21 14.8 21.3 4.4- 74.3- 1.3 1.0---- 0.0------------
1994-06-20 16.4 21.7 10.5- 72.0- 3.0 2.3---- 0.0------------
1994-06-19 16.5 24.2 11.2- 78.0- 4.7 2.0---- 0.0------------
1994-06-18 12.7 19.1 1.8- 72.0- 4.0 2.3---- 5.2------------
1994-06-17 10.9 14.8 8.1- 77.8- 3.0 4.0---- 0.1------------
1994-06-16 10.9 15.4 4.1- 81.3- 5.7 3.3---- 2.6------------
275.3 ms

 

Źródłem pochodzenia danych jest Instytut Meteorologii i Gospodarki Wodnej – Państwowy Instytut Badawczy. Dane Instytutu Meteorologii i Gospodarki Wodnej – Państwowego Instytutu Badawczego zostały przetworzone.

Dane źródłowe można odnaleźć na stronie https://dane.imgw.pl